createdAt,value
2023-03-16T00:01:09.463Z,93.17
2023-03-16T00:06:11.370Z,92.92
2023-03-16T00:11:12.846Z,92.82
2023-03-16T00:16:16.885Z,93.24
2023-03-16T00:21:18.357Z,91.85
2023-03-16T00:26:19.883Z,92.03
2023-03-16T00:31:21.307Z,92.04
2023-03-16T00:36:22.791Z,91.86
2023-03-16T00:41:24.229Z,91.56
2023-03-16T00:46:26.878Z,94.88
2023-03-16T00:51:28.382Z,93.66
2023-03-16T00:56:29.755Z,93.32
2023-03-16T01:01:34.799Z,94.84
2023-03-16T01:06:37.779Z,93.79
2023-03-16T01:11:45.258Z,93.82
2023-03-16T01:16:46.826Z,94.55
2023-03-16T01:21:48.233Z,94.93
2023-03-16T01:26:49.704Z,94.39
2023-03-16T01:31:51.176Z,94.79
2023-03-16T01:36:53.340Z,94.12
2023-03-16T01:41:54.898Z,93.98
2023-03-16T01:46:56.978Z,93.80
2023-03-16T01:52:14.181Z,94.29
2023-03-16T01:57:19.568Z,94.03
2023-03-16T02:02:26.843Z,93.27
2023-03-16T02:07:30.616Z,93.21
2023-03-16T02:12:32.377Z,93.68
2023-03-16T02:17:36.373Z,93.35
2023-03-16T02:22:42.185Z,93.66
2023-03-16T02:28:29.437Z,93.39
2023-03-16T02:33:33.304Z,94.04
2023-03-16T02:38:34.797Z,93.65
2023-03-16T02:43:40.002Z,94.40
2023-03-16T02:48:46.621Z,93.99
2023-03-16T02:53:48.039Z,94.07
2023-03-16T02:58:49.614Z,93.44
2023-03-16T03:03:51.053Z,93.77
2023-03-16T03:08:52.602Z,93.46
2023-03-16T03:13:55.045Z,94.42
2023-03-16T03:18:56.498Z,94.11
2023-03-16T03:23:57.961Z,94.18
2023-03-16T03:28:59.369Z,94.41
2023-03-16T03:34:06.441Z,94.51
2023-03-16T03:39:08.204Z,94.38
2023-03-16T03:44:09.661Z,93.97
2023-03-16T03:49:11.191Z,94.03
2023-03-16T03:54:12.614Z,94.14
2023-03-16T03:59:14.046Z,94.19
2023-03-16T04:04:16.338Z,94.15
2023-03-16T04:09:17.806Z,94.45
2023-03-16T04:14:19.235Z,93.88
2023-03-16T04:19:22.678Z,94.45
2023-03-16T04:24:24.145Z,94.18
2023-03-16T04:29:25.654Z,94.49
2023-03-16T04:34:27.088Z,94.23
2023-03-16T04:39:28.761Z,93.91
2023-03-16T04:44:30.307Z,94.26
2023-03-16T04:49:31.786Z,94.36
2023-03-16T04:54:33.454Z,94.54
2023-03-16T04:59:34.998Z,94.25
2023-03-16T05:04:36.673Z,94.75
2023-03-16T05:09:38.152Z,94.85
2023-03-16T05:14:39.561Z,94.67
2023-03-16T05:19:42.228Z,94.47
2023-03-16T05:24:44.728Z,94.40
2023-03-16T05:29:46.732Z,94.38
2023-03-16T05:34:48.197Z,95.19
2023-03-16T05:39:49.704Z,94.83
2023-03-16T05:44:51.166Z,94.72
2023-03-16T05:49:52.574Z,94.51
2023-03-16T05:54:54.168Z,93.80
2023-03-16T05:59:55.567Z,94.05
2023-03-16T06:04:56.989Z,92.75
2023-03-16T06:09:58.429Z,92.25
2023-03-16T06:15:00.900Z,92.46
2023-03-16T06:20:03.611Z,90.22
2023-03-16T06:25:06.272Z,87.94
2023-03-16T06:30:10.023Z,86.11
2023-03-16T06:35:12.720Z,81.10
2023-03-16T06:40:14.210Z,75.12
2023-03-16T06:45:17.401Z,71.66
2023-03-16T06:50:18.961Z,70.33
2023-03-16T06:55:21.016Z,70.28
2023-03-16T07:00:22.780Z,69.80
2023-03-16T07:05:24.262Z,66.90
2023-03-16T07:10:25.787Z,61.48
2023-03-16T07:15:27.212Z,57.73
2023-03-16T07:20:31.423Z,54.39
2023-03-16T07:25:33.105Z,51.91
2023-03-16T07:30:34.568Z,49.04
2023-03-16T07:35:36.044Z,47.95
2023-03-16T07:40:39.571Z,44.96
2023-03-16T07:45:41.594Z,43.29
2023-03-16T07:50:44.105Z,41.87
2023-03-16T07:55:46.462Z,40.94
2023-03-16T08:00:48.011Z,38.73
2023-03-16T08:05:49.915Z,38.33
2023-03-16T08:10:53.171Z,37.37
2023-03-16T08:15:58.529Z,35.85
2023-03-16T08:21:00.544Z,36.51
2023-03-16T08:26:01.980Z,36.52
2023-03-16T08:31:07.641Z,36.89
2023-03-16T08:36:11.781Z,38.15
2023-03-16T08:41:14.108Z,39.59
2023-03-16T08:46:16.226Z,41.53
2023-03-16T08:51:18.946Z,41.53
2023-03-16T08:56:20.620Z,43.12
2023-03-16T09:01:22.281Z,42.58
2023-03-16T09:06:24.421Z,41.32
2023-03-16T09:11:30.530Z,41.91
2023-03-16T09:16:32.041Z,40.94
2023-03-16T09:21:36.170Z,41.74
2023-03-16T09:26:39.892Z,42.05
2023-03-16T09:31:41.684Z,42.25
2023-03-16T09:36:43.203Z,42.52
2023-03-16T09:41:59.106Z,42.22
2023-03-16T09:47:03.967Z,42.25
2023-03-16T09:52:25.558Z,42.71
2023-03-16T09:57:34.815Z,41.94
2023-03-16T10:02:58.439Z,42.36
2023-03-16T10:08:05.628Z,42.48
2023-03-16T10:13:22.298Z,41.28
2023-03-16T10:18:32.314Z,41.21
2023-03-16T10:23:35.676Z,42.53
2023-03-16T10:28:37.659Z,41.41
2023-03-16T10:33:39.639Z,42.09
2023-03-16T10:38:48.367Z,41.73
2023-03-16T10:44:07.522Z,42.37
2023-03-16T10:49:22.504Z,42.03
2023-03-16T10:54:30.741Z,41.32
2023-03-16T10:59:37.018Z,42.27
2023-03-16T11:04:38.543Z,42.25
2023-03-16T11:09:40.138Z,41.57
2023-03-16T11:14:45.387Z,42.36
2023-03-16T11:19:59.245Z,42.49
2023-03-16T11:25:09.424Z,42.27
2023-03-16T11:30:29.219Z,41.59
2023-03-16T11:35:39.945Z,42.05
2023-03-16T11:41:23.849Z,42.97
2023-03-16T11:46:31.495Z,42.21
2023-03-16T11:51:47.818Z,43.61
2023-03-16T11:57:01.273Z,44.41
2023-03-16T12:02:26.179Z,44.27
2023-03-16T12:07:55.438Z,44.93
2023-03-16T12:13:18.176Z,44.12
2023-03-16T12:18:26.252Z,44.42
2023-03-16T12:23:44.255Z,44.15
2023-03-16T12:28:48.196Z,44.85
2023-03-16T12:34:11.033Z,43.19
2023-03-16T12:39:18.683Z,44.29
2023-03-16T12:44:36.635Z,44.15
2023-03-16T12:49:38.508Z,44.92
2023-03-16T12:54:54.818Z,44.46
2023-03-16T13:00:00.618Z,43.72
2023-03-16T13:05:09.575Z,43.51
2023-03-16T13:10:14.781Z,43.83
2023-03-16T13:15:20.089Z,43.59
2023-03-16T13:20:30.678Z,43.67
2023-03-16T13:25:32.769Z,44.03
2023-03-16T13:30:35.045Z,44.04
2023-03-16T13:35:41.034Z,43.85
2023-03-16T13:40:51.510Z,43.45
2023-03-16T13:45:52.877Z,43.93
2023-03-16T13:50:57.864Z,43.66
2023-03-16T13:56:02.626Z,43.41
2023-03-16T14:01:11.996Z,42.96
2023-03-16T14:06:26.669Z,43.41
2023-03-16T14:11:28.566Z,43.04
2023-03-16T14:16:32.193Z,42.91
2023-03-16T14:21:34.645Z,42.38
2023-03-16T14:26:45.386Z,42.03
2023-03-16T14:31:47.015Z,41.73
2023-03-16T14:36:48.822Z,42.51
2023-03-16T14:41:52.246Z,42.54
2023-03-16T14:46:57.319Z,42.48
2023-03-16T14:52:17.480Z,42.19
2023-03-16T14:57:19.617Z,42.26
2023-03-16T15:02:30.305Z,42.77
2023-03-16T15:07:36.041Z,42.51
2023-03-16T15:12:37.987Z,43.10
2023-03-16T15:17:39.496Z,42.67
2023-03-16T15:22:41.874Z,42.26
2023-03-16T15:27:43.744Z,42.88
2023-03-16T15:32:45.385Z,41.84
2023-03-16T15:37:47.321Z,42.45
2023-03-16T15:42:49.100Z,42.16
2023-03-16T15:47:53.095Z,42.42
2023-03-16T15:53:05.981Z,41.92
2023-03-16T15:58:20.325Z,42.29
2023-03-16T16:03:22.176Z,42.13
2023-03-16T16:08:23.638Z,42.47
2023-03-16T16:13:43.084Z,42.92
2023-03-16T16:18:48.571Z,43.31
2023-03-16T16:23:50.858Z,44.21
2023-03-16T16:28:53.025Z,44.59
2023-03-16T16:33:54.608Z,44.89
2023-03-16T16:38:57.218Z,45.12
2023-03-16T16:44:05.147Z,45.33
2023-03-16T16:49:17.732Z,45.70
2023-03-16T16:54:24.435Z,45.73
2023-03-16T16:59:31.539Z,46.11
2023-03-16T17:04:33.079Z,46.50
2023-03-16T17:09:34.761Z,46.51
2023-03-16T17:14:36.256Z,46.98
2023-03-16T17:19:37.934Z,47.19
2023-03-16T17:24:40.083Z,47.22
2023-03-16T17:29:42.718Z,47.48
2023-03-16T17:34:44.487Z,48.38
2023-03-16T17:39:46.226Z,48.37
2023-03-16T17:44:52.504Z,48.72
2023-03-16T17:49:54.662Z,49.05
2023-03-16T17:54:56.608Z,49.54
2023-03-16T18:00:00.174Z,51.11
2023-03-16T18:05:05.540Z,51.29
2023-03-16T18:10:07.667Z,51.38
2023-03-16T18:15:16.362Z,51.48
2023-03-16T18:20:30.943Z,51.05
2023-03-16T18:25:36.215Z,50.20
2023-03-16T18:30:39.497Z,49.90
2023-03-16T18:35:41.004Z,49.85
2023-03-16T18:40:42.441Z,49.47
2023-03-16T18:45:45.873Z,49.51
2023-03-16T18:50:48.002Z,49.63
2023-03-16T18:55:50.360Z,50.11
2023-03-16T19:00:57.527Z,51.68
2023-03-16T19:06:01.068Z,53.02
2023-03-16T19:11:03.273Z,52.89
2023-03-16T19:16:09.048Z,53.26
2023-03-16T19:21:17.591Z,53.37
2023-03-16T19:26:19.252Z,53.36
2023-03-16T19:31:24.846Z,54.03
2023-03-16T19:36:30.241Z,55.69
2023-03-16T19:41:35.355Z,56.20
2023-03-16T19:46:37.062Z,56.37
2023-03-16T19:51:38.487Z,57.41
2023-03-16T19:56:40.323Z,58.51
2023-03-16T20:01:42.083Z,60.06
2023-03-16T20:06:43.854Z,60.38
2023-03-16T20:11:46.969Z,60.84
2023-03-16T20:16:48.710Z,61.22
2023-03-16T20:21:50.394Z,60.96
2023-03-16T20:26:54.012Z,62.06
2023-03-16T20:31:56.166Z,63.11
2023-03-16T20:36:57.854Z,63.27
2023-03-16T20:41:59.328Z,63.41
2023-03-16T20:47:01.110Z,64.85
2023-03-16T20:52:03.910Z,65.08
2023-03-16T20:57:08.020Z,66.45
2023-03-16T21:02:39.613Z,65.20
2023-03-16T21:07:42.502Z,65.67
2023-03-16T21:12:47.567Z,66.10
2023-03-16T21:17:57.519Z,66.53
2023-03-16T21:22:59.710Z,67.03
2023-03-16T21:28:05.105Z,66.42
2023-03-16T21:33:24.353Z,67.63
2023-03-16T21:38:27.971Z,67.67
2023-03-16T21:43:29.520Z,67.68
2023-03-16T21:48:39.113Z,68.00
2023-03-16T21:53:41.158Z,68.11
2023-03-16T21:58:44.056Z,68.47
2023-03-16T22:03:50.833Z,68.15
2023-03-16T22:08:53.069Z,67.97
2023-03-16T22:13:55.926Z,68.17
2023-03-16T22:18:58.094Z,68.94
2023-03-16T22:24:01.053Z,69.15
2023-03-16T22:29:06.856Z,69.03
2023-03-16T22:34:24.223Z,69.64
2023-03-16T22:39:25.807Z,69.85
2023-03-16T22:44:27.391Z,69.88
2023-03-16T22:49:28.959Z,70.28
2023-03-16T22:54:30.852Z,70.79
2023-03-16T22:59:32.307Z,70.34
2023-03-16T23:04:33.824Z,70.58
2023-03-16T23:09:35.356Z,70.29
2023-03-16T23:14:38.107Z,70.88
2023-03-16T23:19:39.580Z,71.50
2023-03-16T23:24:42.424Z,72.15
2023-03-16T23:29:44.214Z,72.73
2023-03-16T23:34:46.060Z,72.54
2023-03-16T23:39:48.435Z,72.67
2023-03-16T23:44:49.952Z,72.61
2023-03-16T23:49:51.411Z,71.78
2023-03-16T23:54:52.836Z,72.78
2023-03-16T23:59:54.313Z,72.55
